Time;durP1;ratioP1;P1;durP2;ratioP2;P2;SDS_P1;SDS_P2;PMS_P1;PMS_P2;Temp;Humidity;BMP_temperature;BMP_pressure;BME280_temperature;BME280_humidity;BME280_pressure;Samples;Min_cycle;Max_cycle;Signal;HPM_P1;HPM_P2
2022/04/13 00:00:02;;;;;;;46.78;44.38;;;;;;;;;;5069841;28;20051;-55
2022/04/13 00:02:27;;;;;;;42.95;40.75;;;;;;;;;;5070421;28;20066;-56
2022/04/13 00:04:53;;;;;;;36.78;34.88;;;;;;;;;;5074523;28;20036;-57
2022/04/13 00:07:18;;;;;;;33.80;32.05;;;;;;;;;;5074527;28;20084;-55
2022/04/13 00:09:43;;;;;;;52.72;49.95;;;;;;;;;;5077339;28;20024;-56
2022/04/13 00:12:09;;;;;;;35.08;33.22;;;;;;;;;;5066559;28;20086;-54
2022/04/13 00:14:35;;;;;;;30.48;28.85;;;;;;;;;;5080605;28;20041;-56
2022/04/13 00:17:00;;;;;;;31.40;29.75;;;;;;;;;;5077728;28;20035;-56
2022/04/13 00:19:26;;;;;;;59.67;56.67;;;;;;;;;;5074082;28;20119;-55
2022/04/13 00:21:51;;;;;;;39.78;37.75;;;;;;;;;;5073313;28;20119;-50
2022/04/13 00:24:16;;;;;;;19.55;18.45;;;;;;;;;;5073257;28;20024;-47
2022/04/13 00:26:42;;;;;;;31.35;29.65;;;;;;;;;;5075850;28;20131;-47
2022/04/13 00:29:07;;;;;;;36.13;34.20;;;;;;;;;;5072319;28;20037;-47
2022/04/13 00:31:33;;;;;;;29.98;28.42;;;;;;;;;;5069077;28;20044;-47
2022/04/13 00:33:58;;;;;;;34.60;32.80;;;;;;;;;;5071669;28;20040;-47
2022/04/13 00:36:24;;;;;;;31.25;29.58;;;;;;;;;;5076047;28;20488;-47
2022/04/13 00:38:49;;;;;;;37.40;35.42;;;;;;;;;;5075471;28;20047;-56
2022/04/13 00:41:17;;;;;;;24.60;23.20;;;;;;;;;;5073460;28;20058;-56
2022/04/13 00:43:42;;;;;;;12.50;11.73;;;;;;;;;;5078254;28;20638;-56
2022/04/13 00:46:07;;;;;;;22.67;21.48;;;;;;;;;;5075652;28;20107;-55
2022/04/13 00:48:39;;;;;;;16.77;15.82;;;;;;;;;;5076684;28;20541;-49
2022/04/13 00:51:05;;;;;;;40.72;38.53;;;;;;;;;;5074607;28;20036;-51
2022/04/13 00:53:33;;;;;;;36.35;34.47;;;;;;;;;;5075489;28;20094;-49
2022/04/13 00:56:00;;;;;;;38.70;36.70;;;;;;;;;;5073467;28;20650;-52
2022/04/13 00:58:28;;;;;;;30.58;28.98;;;;;;;;;;5073842;28;20040;-56
2022/04/13 01:00:54;;;;;;;19.02;18.02;;;;;;;;;;5076006;28;20089;-54
2022/04/13 01:03:25;;;;;;;33.13;31.38;;;;;;;;;;5075409;28;20036;-56
2022/04/13 01:05:51;;;;;;;38.65;31.30;;;;;;;;;;5075295;28;20119;-48
2022/04/13 01:08:18;;;;;;;27.90;26.42;;;;;;;;;;5067777;28;20460;-47
2022/04/13 01:10:48;;;;;;;38.90;36.92;;;;;;;;;;5068509;28;20032;-47
2022/04/13 01:13:15;;;;;;;34.90;33.08;;;;;;;;;;5068780;28;20534;-56
2022/04/13 01:15:41;;;;;;;24.55;23.17;;;;;;;;;;5071332;28;20510;-47
2022/04/13 01:18:07;;;;;;;30.83;29.23;;;;;;;;;;5068593;28;20120;-49
2022/04/13 01:20:35;;;;;;;25.38;24.02;;;;;;;;;;5068537;28;20123;-48
2022/04/13 01:23:01;;;;;;;27.88;26.40;;;;;;;;;;5071143;28;20143;-47
2022/04/13 01:25:28;;;;;;;32.88;31.17;;;;;;;;;;5068385;28;20143;-46
2022/04/13 01:27:53;;;;;;;34.22;32.42;;;;;;;;;;5069628;28;20063;-48
2022/04/13 01:30:19;;;;;;;29.75;28.20;;;;;;;;;;5066656;28;20073;-48
2022/04/13 01:32:45;;;;;;;32.30;30.60;;;;;;;;;;5068056;28;20044;-48
2022/04/13 01:35:10;;;;;;;32.80;31.10;;;;;;;;;;5068500;28;20060;-49
2022/04/13 01:37:36;;;;;;;29.40;27.85;;;;;;;;;;5054472;28;20050;-47
2022/04/13 01:40:01;;;;;;;35.80;33.97;;;;;;;;;;5069761;28;20386;-48
2022/04/13 01:42:28;;;;;;;34.42;32.63;;;;;;;;;;5073755;28;20052;-48
2022/04/13 01:44:54;;;;;;;34.05;32.28;;;;;;;;;;5074613;28;20055;-47
2022/04/13 01:47:19;;;;;;;30.00;28.30;;;;;;;;;;5071660;28;20357;-47
2022/04/13 01:49:45;;;;;;;28.38;26.88;;;;;;;;;;5076769;28;20388;-56
2022/04/13 01:52:11;;;;;;;28.75;27.25;;;;;;;;;;5071782;28;20098;-47
2022/04/13 01:54:36;;;;;;;32.22;30.52;;;;;;;;;;5073966;28;20046;-47
2022/04/13 01:57:02;;;;;;;28.77;27.27;;;;;;;;;;5074640;28;20526;-46
2022/04/13 01:59:28;;;;;;;22.70;21.40;;;;;;;;;;5072791;28;20055;-56
2022/04/13 02:01:53;;;;;;;30.00;28.40;;;;;;;;;;5073411;28;20113;-56
2022/04/13 02:04:21;;;;;;;17.40;16.40;;;;;;;;;;5071125;28;20389;-56
2022/04/13 02:06:47;;;;;;;16.33;15.43;;;;;;;;;;5073470;28;20040;-56
2022/04/13 02:09:14;;;;;;;16.40;15.50;;;;;;;;;;5066836;28;20033;-55
2022/04/13 02:11:39;;;;;;;21.00;19.85;;;;;;;;;;5068305;28;20059;-55
2022/04/13 02:14:05;;;;;;;16.63;15.73;;;;;;;;;;5068396;28;20461;-54
2022/04/13 02:16:30;;;;;;;21.00;19.85;;;;;;;;;;5065198;28;20616;-56
2022/04/13 02:18:55;;;;;;;20.27;19.05;;;;;;;;;;5068146;28;20037;-55
2022/04/13 02:21:21;;;;;;;15.07;14.18;;;;;;;;;;5068756;28;20040;-52
2022/04/13 02:23:46;;;;;;;20.15;19.02;;;;;;;;;;5064198;28;20102;-48
2022/04/13 02:26:12;;;;;;;12.77;12.02;;;;;;;;;;5066199;28;20037;-48
2022/04/13 02:28:38;;;;;;;16.02;15.05;;;;;;;;;;5067763;28;20048;-56
2022/04/13 02:31:03;;;;;;;19.02;17.92;;;;;;;;;;5067691;28;20065;-56
2022/04/13 02:33:31;;;;;;;16.25;15.35;;;;;;;;;;5072534;28;20875;-56
2022/04/13 02:35:57;;;;;;;15.82;14.93;;;;;;;;;;5069347;28;20032;-56
2022/04/13 02:38:23;;;;;;;13.52;12.73;;;;;;;;;;5068354;28;20048;-47
2022/04/13 02:40:48;;;;;;;11.73;11.02;;;;;;;;;;5070356;28;20040;-53
2022/04/13 02:43:13;;;;;;;10.07;9.45;;;;;;;;;;5074705;28;20040;-55
2022/04/13 02:45:39;;;;;;;10.52;9.82;;;;;;;;;;5075000;28;20545;-50
2022/04/13 02:48:04;;;;;;;11.60;10.75;;;;;;;;;;5070394;28;20026;-47
2022/04/13 02:50:30;;;;;;;8.98;8.38;;;;;;;;;;5069096;28;20036;-47
2022/04/13 02:52:56;;;;;;;9.07;8.48;;;;;;;;;;5070976;28;20056;-54
2022/04/13 02:55:22;;;;;;;9.30;8.68;;;;;;;;;;5071750;28;20039;-55
2022/04/13 02:57:48;;;;;;;8.75;8.18;;;;;;;;;;5066437;28;20056;-56
2022/04/13 03:00:14;;;;;;;8.48;7.88;;;;;;;;;;5068909;28;21566;-55
2022/04/13 03:02:40;;;;;;;9.18;8.57;;;;;;;;;;5070925;28;20093;-56
2022/04/13 03:05:06;;;;;;;8.18;7.68;;;;;;;;;;5069649;28;20032;-56
2022/04/13 03:07:32;;;;;;;8.15;7.65;;;;;;;;;;5075002;28;20028;-56
2022/04/13 03:09:58;;;;;;;9.45;8.60;;;;;;;;;;5072328;28;20059;-47
2022/04/13 03:12:24;;;;;;;9.23;8.63;;;;;;;;;;5068862;28;20164;-56
2022/04/13 03:14:50;;;;;;;9.85;9.25;;;;;;;;;;5072991;28;20436;-52
2022/04/13 03:17:16;;;;;;;12.25;11.50;;;;;;;;;;5070069;28;20021;-56
2022/04/13 03:19:41;;;;;;;9.93;9.32;;;;;;;;;;5072748;28;20603;-56
2022/04/13 03:22:07;;;;;;;10.95;10.25;;;;;;;;;;5071831;28;20477;-47
2022/04/13 03:24:34;;;;;;;8.93;8.32;;;;;;;;;;5068137;28;20067;-47
2022/04/13 03:26:59;;;;;;;9.32;8.73;;;;;;;;;;5074085;28;20028;-55
2022/04/13 03:29:25;;;;;;;8.98;8.32;;;;;;;;;;5073655;28;20411;-49
2022/04/13 03:31:51;;;;;;;11.63;9.30;;;;;;;;;;5066673;28;20425;-48
2022/04/13 03:34:20;;;;;;;11.63;10.93;;;;;;;;;;5069259;28;20075;-56
2022/04/13 03:36:49;;;;;;;8.90;8.30;;;;;;;;;;5073734;28;20055;-48
2022/04/13 03:39:15;;;;;;;8.80;8.20;;;;;;;;;;5069348;28;20032;-49
2022/04/13 03:41:40;;;;;;;9.35;8.75;;;;;;;;;;5073470;28;20086;-48
2022/04/13 03:44:06;;;;;;;9.30;8.70;;;;;;;;;;5071545;28;20040;-47
2022/04/13 03:46:32;;;;;;;8.02;7.50;;;;;;;;;;5070455;28;20036;-48
2022/04/13 03:48:58;;;;;;;10.82;10.18;;;;;;;;;;5070364;28;20520;-55
2022/04/13 03:51:23;;;;;;;9.75;9.05;;;;;;;;;;5073240;28;20111;-47
2022/04/13 03:53:49;;;;;;;10.73;10.02;;;;;;;;;;5076012;28;20039;-47
2022/04/13 03:56:14;;;;;;;10.65;9.65;;;;;;;;;;5071794;28;20537;-49
2022/04/13 03:58:40;;;;;;;12.27;11.55;;;;;;;;;;5074625;28;20032;-56
2022/04/13 04:01:10;;;;;;;14.90;14.02;;;;;;;;;;5072094;28;20129;-55
2022/04/13 04:03:36;;;;;;;12.23;11.43;;;;;;;;;;5076083;28;20450;-54
2022/04/13 04:06:03;;;;;;;10.85;10.15;;;;;;;;;;5074078;28;20056;-56
2022/04/13 04:08:28;;;;;;;10.05;9.45;;;;;;;;;;5072422;28;20029;-46
2022/04/13 04:10:54;;;;;;;8.13;7.53;;;;;;;;;;5075862;28;20055;-47
2022/04/13 04:13:20;;;;;;;9.85;9.25;;;;;;;;;;5070327;28;20533;-46
2022/04/13 04:15:46;;;;;;;10.38;9.57;;;;;;;;;;5075948;28;20029;-46
2022/04/13 04:18:11;;;;;;;10.60;9.95;;;;;;;;;;5073220;28;20044;-46
2022/04/13 04:20:37;;;;;;;8.30;7.80;;;;;;;;;;5073084;28;20028;-47
2022/04/13 04:23:02;;;;;;;9.50;8.80;;;;;;;;;;5075633;28;20029;-47
2022/04/13 04:25:28;;;;;;;9.50;8.88;;;;;;;;;;5072660;28;20101;-48
2022/04/13 04:27:53;;;;;;;11.25;10.55;;;;;;;;;;5075419;28;20028;-47
2022/04/13 04:30:19;;;;;;;10.90;9.85;;;;;;;;;;5072158;28;20021;-51
2022/04/13 04:32:44;;;;;;;9.60;9.00;;;;;;;;;;5075025;28;20054;-49
2022/04/13 04:35:10;;;;;;;9.50;8.90;;;;;;;;;;5062582;28;20040;-54
2022/04/13 04:37:35;;;;;;;9.70;9.02;;;;;;;;;;5070933;28;20048;-49
2022/04/13 04:40:01;;;;;;;10.18;9.48;;;;;;;;;;5080055;28;20032;-47
2022/04/13 04:42:27;;;;;;;9.20;8.60;;;;;;;;;;5071874;28;20461;-48
2022/04/13 04:44:57;;;;;;;9.25;8.65;;;;;;;;;;5075332;28;20040;-47
2022/04/13 04:47:23;;;;;;;9.83;9.23;;;;;;;;;;5073327;28;20044;-48
2022/04/13 04:49:48;;;;;;;12.27;11.48;;;;;;;;;;5073864;28;20033;-54
2022/04/13 04:52:14;;;;;;;9.77;9.15;;;;;;;;;;5075350;28;21721;-54
2022/04/13 04:54:39;;;;;;;9.30;8.70;;;;;;;;;;5069371;28;20024;-46
2022/04/13 04:57:04;;;;;;;11.93;11.18;;;;;;;;;;5073740;28;20080;-49
2022/04/13 04:59:30;;;;;;;10.43;9.80;;;;;;;;;;5074786;28;20021;-48
2022/04/13 05:01:55;;;;;;;9.50;8.82;;;;;;;;;;5072494;28;20075;-49
2022/04/13 05:04:21;;;;;;;8.90;8.30;;;;;;;;;;5072050;28;20470;-48
2022/04/13 05:06:46;;;;;;;11.30;10.60;;;;;;;;;;5075306;28;20096;-50
2022/04/13 05:09:12;;;;;;;10.93;10.23;;;;;;;;;;5073502;28;20136;-47
2022/04/13 05:11:37;;;;;;;10.60;9.90;;;;;;;;;;5074016;28;21588;-48
2022/04/13 05:14:03;;;;;;;12.35;11.20;;;;;;;;;;5073261;28;20109;-50
2022/04/13 05:16:28;;;;;;;9.65;9.05;;;;;;;;;;5076088;28;20052;-55
2022/04/13 05:18:53;;;;;;;10.68;9.95;;;;;;;;;;5072128;28;20435;-56
2022/04/13 05:21:19;;;;;;;10.77;10.07;;;;;;;;;;5069334;28;20044;-56
2022/04/13 05:23:44;;;;;;;11.57;10.88;;;;;;;;;;5069411;28;20036;-56
2022/04/13 05:26:11;;;;;;;10.15;9.45;;;;;;;;;;5074430;28;20035;-54
2022/04/13 05:28:36;;;;;;;11.25;10.55;;;;;;;;;;5075371;28;20040;-48
2022/04/13 05:31:02;;;;;;;10.68;10.00;;;;;;;;;;5073324;28;20378;-48
2022/04/13 05:33:28;;;;;;;10.35;9.75;;;;;;;;;;5071960;28;20032;-55
2022/04/13 05:35:53;;;;;;;10.20;9.55;;;;;;;;;;5077011;28;20463;-50
2022/04/13 05:38:19;;;;;;;11.60;10.90;;;;;;;;;;5074287;28;20071;-48
2022/04/13 05:40:45;;;;;;;10.60;9.90;;;;;;;;;;5069872;28;20029;-48
2022/04/13 05:43:11;;;;;;;10.75;9.98;;;;;;;;;;5073372;28;20047;-48
2022/04/13 05:45:37;;;;;;;11.68;10.98;;;;;;;;;;5072435;28;20043;-49
2022/04/13 05:48:02;;;;;;;12.13;10.93;;;;;;;;;;5068250;28;20035;-56
2022/04/13 05:50:28;;;;;;;14.38;13.43;;;;;;;;;;5071111;28;20113;-47
2022/04/13 05:52:53;;;;;;;13.20;12.32;;;;;;;;;;5070506;28;20038;-47
2022/04/13 05:55:19;;;;;;;12.25;11.45;;;;;;;;;;5072170;28;20043;-48
2022/04/13 05:57:44;;;;;;;11.50;10.60;;;;;;;;;;5079242;28;20071;-56
2022/04/13 06:00:12;;;;;;;13.57;12.68;;;;;;;;;;5074376;28;20440;-56
2022/04/13 06:02:38;;;;;;;12.30;11.60;;;;;;;;;;5073113;28;20050;-57
2022/04/13 06:05:05;;;;;;;13.23;12.43;;;;;;;;;;5072820;28;20062;-48
2022/04/13 06:07:30;;;;;;;13.48;12.48;;;;;;;;;;5068277;28;20491;-50
2022/04/13 06:09:55;;;;;;;16.05;14.95;;;;;;;;;;5075188;28;20109;-50
2022/04/13 06:12:24;;;;;;;15.23;14.32;;;;;;;;;;5072495;28;20060;-51
2022/04/13 06:14:50;;;;;;;17.08;15.32;;;;;;;;;;5070355;28;20118;-50
2022/04/13 06:17:16;;;;;;;16.52;15.32;;;;;;;;;;5072205;28;20096;-47
2022/04/13 06:19:42;;;;;;;14.98;13.60;;;;;;;;;;5065898;28;20033;-48
2022/04/13 06:22:07;;;;;;;15.07;14.13;;;;;;;;;;5070871;28;20040;-48
2022/04/13 06:24:33;;;;;;;18.27;12.73;;;;;;;;;;5073057;28;20029;-49
2022/04/13 06:26:58;;;;;;;19.02;17.73;;;;;;;;;;5065937;28;20035;-50
2022/04/13 06:29:23;;;;;;;17.55;16.15;;;;;;;;;;5069871;28;20066;-47
2022/04/13 06:31:49;;;;;;;17.80;16.70;;;;;;;;;;5068219;28;20024;-58
2022/04/13 06:34:16;;;;;;;13.65;12.85;;;;;;;;;;5071530;28;20583;-60
2022/04/13 06:36:41;;;;;;;13.00;12.20;;;;;;;;;;5075331;28;20037;-58
2022/04/13 06:39:07;;;;;;;14.55;13.50;;;;;;;;;;5069984;28;20042;-59
2022/04/13 06:41:32;;;;;;;10.60;9.65;;;;;;;;;;5067448;28;20052;-58
2022/04/13 06:43:58;;;;;;;14.07;13.18;;;;;;;;;;5073677;28;20035;-59
2022/04/13 06:46:24;;;;;;;18.20;17.10;;;;;;;;;;5071293;28;20123;-59
2022/04/13 06:48:49;;;;;;;12.20;11.48;;;;;;;;;;5071371;28;20127;-57
2022/04/13 06:51:15;;;;;;;12.30;11.52;;;;;;;;;;5066026;28;20047;-57
2022/04/13 06:53:40;;;;;;;11.75;10.95;;;;;;;;;;5071148;28;20035;-58
2022/04/13 06:56:06;;;;;;;10.70;10.00;;;;;;;;;;5071732;28;20036;-57
2022/04/13 06:58:31;;;;;;;11.35;10.63;;;;;;;;;;5069124;28;20102;-58
2022/04/13 07:00:57;;;;;;;15.32;14.43;;;;;;;;;;5070201;28;20752;-59
2022/04/13 07:03:24;;;;;;;15.35;14.45;;;;;;;;;;5069207;28;20028;-58
2022/04/13 07:05:49;;;;;;;28.95;27.42;;;;;;;;;;5067112;28;20084;-57
2022/04/13 07:08:15;;;;;;;39.90;37.80;;;;;;;;;;5067074;28;20067;-57
2022/04/13 07:10:40;;;;;;;38.42;36.42;;;;;;;;;;5068769;28;20084;-57
2022/04/13 07:13:07;;;;;;;40.20;38.13;;;;;;;;;;5067834;28;20247;-59
2022/04/13 07:15:32;;;;;;;53.55;50.72;;;;;;;;;;5073289;28;20036;-59
2022/04/13 07:17:58;;;;;;;50.63;48.05;;;;;;;;;;5068632;28;20038;-58
2022/04/13 07:20:24;;;;;;;66.03;62.60;;;;;;;;;;5069819;28;20440;-59
2022/04/13 07:22:52;;;;;;;73.22;69.53;;;;;;;;;;5067060;28;20086;-57
2022/04/13 07:25:18;;;;;;;76.22;72.43;;;;;;;;;;5075093;28;20056;-57
2022/04/13 07:27:44;;;;;;;42.08;39.88;;;;;;;;;;5077964;28;20042;-59
2022/04/13 07:30:10;;;;;;;21.95;20.75;;;;;;;;;;5076357;28;20467;-58
2022/04/13 07:32:36;;;;;;;18.67;17.63;;;;;;;;;;5074126;28;20117;-57
2022/04/13 07:35:05;;;;;;;10.82;10.13;;;;;;;;;;5061236;28;20509;-58
2022/04/13 07:37:31;;;;;;;9.05;8.45;;;;;;;;;;5062743;28;20051;-57
2022/04/13 07:39:57;;;;;;;6.80;6.30;;;;;;;;;;5069598;28;20047;-58
2022/04/13 07:42:25;;;;;;;7.57;7.05;;;;;;;;;;5071270;28;20032;-58
2022/04/13 07:44:50;;;;;;;10.25;9.55;;;;;;;;;;5076018;28;20028;-58
2022/04/13 07:47:16;;;;;;;8.10;7.50;;;;;;;;;;5069927;28;20028;-58
2022/04/13 07:49:42;;;;;;;7.78;7.28;;;;;;;;;;5073579;28;20470;-58
2022/04/13 07:52:08;;;;;;;33.22;31.45;;;;;;;;;;5074778;28;20479;-48
2022/04/13 07:54:33;;;;;;;9.15;8.55;;;;;;;;;;5073933;28;20044;-49
2022/04/13 07:56:59;;;;;;;11.43;10.73;;;;;;;;;;5066777;28;20043;-52
2022/04/13 07:59:25;;;;;;;15.85;14.88;;;;;;;;;;5068676;28;20106;-51
2022/04/13 08:01:50;;;;;;;24.45;23.15;;;;;;;;;;5067950;28;20059;-59
2022/04/13 08:04:15;;;;;;;11.95;11.25;;;;;;;;;;5071705;28;20051;-57
2022/04/13 08:06:41;;;;;;;7.30;6.80;;;;;;;;;;5072524;28;20040;-51
2022/04/13 08:09:06;;;;;;;9.57;8.98;;;;;;;;;;5072591;28;20919;-48
2022/04/13 08:11:32;;;;;;;8.05;7.55;;;;;;;;;;5072225;28;20036;-48
2022/04/13 08:13:57;;;;;;;11.75;11.05;;;;;;;;;;5068984;28;20039;-47
2022/04/13 08:16:23;;;;;;;9.43;8.65;;;;;;;;;;5070490;28;20068;-48
2022/04/13 08:18:48;;;;;;;8.18;7.68;;;;;;;;;;5068552;28;20117;-51
2022/04/13 08:21:13;;;;;;;8.43;7.93;;;;;;;;;;5070931;28;20039;-48
2022/04/13 08:23:39;;;;;;;21.02;19.88;;;;;;;;;;5073049;28;20036;-48
2022/04/13 08:26:04;;;;;;;9.57;8.82;;;;;;;;;;5074961;28;20037;-50
2022/04/13 08:28:29;;;;;;;12.40;11.60;;;;;;;;;;5069610;28;20063;-51
2022/04/13 08:30:55;;;;;;;22.80;21.60;;;;;;;;;;5071278;28;20122;-49
2022/04/13 08:33:21;;;;;;;13.23;12.43;;;;;;;;;;5069409;28;20048;-50
2022/04/13 08:35:46;;;;;;;17.90;16.90;;;;;;;;;;5070020;28;20040;-57
2022/04/13 08:38:11;;;;;;;20.85;19.75;;;;;;;;;;5070642;28;20036;-59
2022/04/13 08:40:48;;;;;;;27.80;26.33;;;;;;;;;;5070059;28;20497;-57
2022/04/13 08:43:18;;;;;;;33.05;31.17;;;;;;;;;;5070528;28;20032;-58
2022/04/13 08:45:53;;;;;;;28.15;26.63;;;;;;;;;;5075348;28;20036;-58
2022/04/13 08:48:22;;;;;;;55.10;52.33;;;;;;;;;;5075323;28;20058;-58
2022/04/13 08:50:53;;;;;;;53.50;50.78;;;;;;;;;;5070101;28;20448;-59
2022/04/13 08:53:20;;;;;;;57.85;54.95;;;;;;;;;;5070616;28;20040;-58
2022/04/13 08:55:53;;;;;;;56.33;53.45;;;;;;;;;;5073303;28;20028;-57
2022/04/13 08:58:34;;;;;;;51.33;48.63;;;;;;;;;;5075367;28;20789;-57
2022/04/13 09:01:03;;;;;;;50.90;48.25;;;;;;;;;;5073028;28;20025;-57
2022/04/13 09:03:48;;;;;;;32.83;31.13;;;;;;;;;;5073982;28;20346;-57
2022/04/13 09:06:15;;;;;;;40.25;38.13;;;;;;;;;;5075173;28;20138;-59
2022/04/13 09:08:53;;;;;;;33.08;31.08;;;;;;;;;;5072151;28;20444;-58
2022/04/13 09:11:22;;;;;;;38.72;36.65;;;;;;;;;;5071812;28;20110;-58
2022/04/13 09:13:48;;;;;;;51.35;48.75;;;;;;;;;;5071251;28;20036;-57
2022/04/13 09:16:14;;;;;;;48.17;45.70;;;;;;;;;;5072501;28;20063;-56
2022/04/13 09:18:41;;;;;;;58.65;55.67;;;;;;;;;;5073587;28;20452;-58
2022/04/13 09:21:07;;;;;;;59.75;56.70;;;;;;;;;;5066974;28;20040;-57
2022/04/13 09:23:32;;;;;;;88.53;84.10;;;;;;;;;;5065901;28;20047;-58
2022/04/13 09:25:58;;;;;;;82.57;78.15;;;;;;;;;;5068717;28;20058;-57
2022/04/13 09:28:25;;;;;;;55.22;52.17;;;;;;;;;;5069389;28;20055;-57
2022/04/13 09:30:52;;;;;;;61.42;58.20;;;;;;;;;;5067067;28;20040;-57
2022/04/13 09:33:18;;;;;;;60.40;57.33;;;;;;;;;;5064755;28;20457;-57
2022/04/13 09:35:43;;;;;;;77.18;73.28;;;;;;;;;;5063690;28;20055;-57
2022/04/13 09:38:09;;;;;;;76.75;72.80;;;;;;;;;;5064954;28;20107;-55
2022/04/13 09:40:37;;;;;;;90.25;85.72;;;;;;;;;;5064967;28;20040;-57
2022/04/13 09:43:13;;;;;;;77.38;73.13;;;;;;;;;;5066124;28;20032;-56
2022/04/13 09:45:44;;;;;;;87.68;83.20;;;;;;;;;;5067122;28;20380;-57
2022/04/13 09:48:13;;;;;;;;;;;;;;;;;;5066084;28;20041;-57
2022/04/13 09:50:40;;;;;;;48.08;45.42;;;;;;;;;;5068678;28;19931;-56
2022/04/13 09:53:07;;;;;;;55.33;52.45;;;;;;;;;;5067398;28;20032;-57
2022/04/13 09:55:49;;;;;;;45.22;42.58;;;;;;;;;;5065628;28;20047;-57
2022/04/13 09:58:17;;;;;;;83.80;79.57;;;;;;;;;;5069559;28;20123;-57
2022/04/13 10:00:46;;;;;;;59.40;56.40;;;;;;;;;;5066539;28;20040;-57
2022/04/13 10:03:12;;;;;;;87.70;83.25;;;;;;;;;;5066305;28;20139;-57
2022/04/13 10:05:41;;;;;;;68.65;65.15;;;;;;;;;;5062920;28;20133;-56
2022/04/13 10:08:08;;;;;;;62.17;59.00;;;;;;;;;;5065542;28;20083;-59
2022/04/13 10:10:34;;;;;;;77.18;73.25;;;;;;;;;;5064109;28;20136;-57
2022/04/13 10:13:00;;;;;;;77.20;73.30;;;;;;;;;;5067624;28;20044;-57
2022/04/13 10:15:25;;;;;;;51.65;48.95;;;;;;;;;;5065731;28;20393;-58
2022/04/13 10:17:58;;;;;;;64.43;61.10;;;;;;;;;;5063546;28;20033;-58
2022/04/13 10:20:27;;;;;;;86.70;82.38;;;;;;;;;;5063722;28;20067;-58
2022/04/13 10:23:01;;;;;;;92.68;88.03;;;;;;;;;;5063340;28;20131;-57
2022/04/13 10:25:28;;;;;;;107.95;102.22;;;;;;;;;;5063699;28;20507;-58
2022/04/13 10:28:00;;;;;;;95.57;90.80;;;;;;;;;;5065562;28;20032;-59
2022/04/13 10:30:37;;;;;;;78.88;74.93;;;;;;;;;;5065522;28;20048;-57
2022/04/13 10:33:08;;;;;;;63.53;60.33;;;;;;;;;;5062502;28;20033;-59
2022/04/13 10:35:36;;;;;;;55.30;52.25;;;;;;;;;;5063227;28;20477;-56
2022/04/13 10:38:03;;;;;;;58.88;55.88;;;;;;;;;;5067209;28;20034;-56
2022/04/13 10:40:40;;;;;;;64.93;61.63;;;;;;;;;;5063671;28;20470;-57
2022/04/13 10:43:08;;;;;;;55.22;52.33;;;;;;;;;;5064357;28;20040;-57
2022/04/13 10:45:34;;;;;;;61.53;58.40;;;;;;;;;;5067992;28;20048;-56
2022/04/13 10:48:10;;;;;;;67.10;63.42;;;;;;;;;;5063791;28;20028;-57
2022/04/13 10:50:49;;;;;;;69.63;66.15;;;;;;;;;;5063094;28;20040;-56
2022/04/13 10:53:20;;;;;;;50.05;47.50;;;;;;;;;;5062686;28;20036;-56
2022/04/13 10:55:57;;;;;;;39.05;37.00;;;;;;;;;;5062625;28;20028;-57
2022/04/13 10:58:43;;;;;;;38.60;36.63;;;;;;;;;;5059212;28;20025;-56
2022/04/13 11:01:11;;;;;;;38.92;36.95;;;;;;;;;;5069339;28;20036;-55
2022/04/13 11:03:38;;;;;;;40.22;38.17;;;;;;;;;;5066690;28;20041;-55
2022/04/13 11:06:06;;;;;;;47.78;45.28;;;;;;;;;;5067680;28;20028;-50
2022/04/13 11:08:48;;;;;;;32.85;31.15;;;;;;;;;;5065310;28;20104;-53
2022/04/13 11:11:17;;;;;;;43.60;41.30;;;;;;;;;;5068660;28;20028;-55
2022/04/13 11:13:45;;;;;;;41.72;39.50;;;;;;;;;;5070898;28;20039;-55
2022/04/13 11:16:15;;;;;;;34.83;32.95;;;;;;;;;;5070896;28;20032;-56
2022/04/13 11:18:41;;;;;;;36.78;34.90;;;;;;;;;;5069383;28;20035;-55
2022/04/13 11:21:08;;;;;;;40.45;38.33;;;;;;;;;;5070880;28;20739;-55
2022/04/13 11:23:50;;;;;;;35.10;33.30;;;;;;;;;;5068157;28;20115;-55
2022/04/13 11:26:33;;;;;;;35.90;34.00;;;;;;;;;;5072458;28;20602;-56
2022/04/13 11:29:21;;;;;;;28.10;26.58;;;;;;;;;;5068286;28;20098;-56
2022/04/13 11:32:01;;;;;;;36.13;34.13;;;;;;;;;;5071587;28;20128;-56
2022/04/13 11:34:37;;;;;;;;;;;;;;;;;;5067712;28;20048;-56
2022/04/13 11:37:04;;;;;;;30.52;28.83;;;;;;;;;;5065925;28;20265;-54
2022/04/13 11:39:47;;;;;;;48.70;46.17;;;;;;;;;;5069943;28;20090;-56
2022/04/13 11:42:16;;;;;;;36.92;35.03;;;;;;;;;;5056077;28;20369;-55
2022/04/13 11:44:49;;;;;;;48.05;45.60;;;;;;;;;;5070066;28;20454;-54
2022/04/13 11:47:16;;;;;;;39.45;37.40;;;;;;;;;;5069771;28;20046;-56
2022/04/13 11:50:00;;;;;;;45.95;43.55;;;;;;;;;;5068487;28;20033;-57
2022/04/13 11:52:48;;;;;;;48.53;46.00;;;;;;;;;;5072198;28;20105;-57
2022/04/13 11:55:18;;;;;;;35.50;33.70;;;;;;;;;;5074382;28;20033;-58
2022/04/13 11:58:08;;;;;;;43.53;41.15;;;;;;;;;;5076626;28;20407;-58
2022/04/13 12:00:41;;;;;;;40.63;38.53;;;;;;;;;;5072864;28;20060;-57
2022/04/13 12:03:11;;;;;;;43.83;41.55;;;;;;;;;;5073722;28;20040;-58
2022/04/13 12:05:41;;;;;;;50.22;47.67;;;;;;;;;;5074985;28;20055;-56
2022/04/13 12:08:15;;;;;;;56.55;53.72;;;;;;;;;;5071177;28;20036;-56
2022/04/13 12:10:55;;;;;;;53.80;50.90;;;;;;;;;;5072101;28;20032;-56
2022/04/13 12:13:20;;;;;;;56.80;53.78;;;;;;;;;;5074015;28;20213;-56
2022/04/13 12:15:51;;;;;;;52.35;49.65;;;;;;;;;;5071054;28;20151;-56
2022/04/13 12:18:18;;;;;;;52.47;49.78;;;;;;;;;;5071675;28;20032;-56
2022/04/13 12:20:44;;;;;;;42.42;40.22;;;;;;;;;;5043339;28;20037;-55
2022/04/13 12:23:27;;;;;;;43.45;41.25;;;;;;;;;;5071675;28;20035;-54
2022/04/13 12:25:57;;;;;;;48.33;45.72;;;;;;;;;;5073059;28;20366;-56
2022/04/13 12:28:24;;;;;;;56.05;52.90;;;;;;;;;;5076081;28;20020;-55
2022/04/13 12:30:58;;;;;;;48.60;46.10;;;;;;;;;;5073792;28;20029;-56
2022/04/13 12:33:25;;;;;;;46.78;44.38;;;;;;;;;;5075577;28;20032;-55
2022/04/13 12:36:01;;;;;;;47.05;44.35;;;;;;;;;;5075348;28;20080;-55
2022/04/13 12:38:38;;;;;;;45.78;43.38;;;;;;;;;;5069857;28;20044;-57
2022/04/13 12:41:06;;;;;;;55.13;52.33;;;;;;;;;;5071413;28;20041;-56
2022/04/13 12:43:33;;;;;;;56.72;53.88;;;;;;;;;;5072104;28;20089;-56
2022/04/13 12:46:27;;;;;;;40.15;38.05;;;;;;;;;;5073871;28;20343;-56
2022/04/13 12:48:57;;;;;;;42.55;40.30;;;;;;;;;;5071142;28;20084;-56
2022/04/13 12:51:28;;;;;;;42.25;40.05;;;;;;;;;;5075699;28;20129;-57
2022/04/13 12:53:56;;;;;;;37.97;35.78;;;;;;;;;;5075011;28;20089;-56
2022/04/13 12:56:27;;;;;;;43.78;41.47;;;;;;;;;;5079746;28;20043;-56
2022/04/13 12:58:53;;;;;;;39.10;37.10;;;;;;;;;;5074883;28;20497;-57
2022/04/13 13:01:35;;;;;;;36.55;34.60;;;;;;;;;;5076858;28;20064;-56
2022/04/13 13:04:06;;;;;;;41.85;39.63;;;;;;;;;;5077898;28;20150;-56
2022/04/13 13:06:32;;;;;;;35.92;34.08;;;;;;;;;;5073148;28;20051;-57
2022/04/13 13:09:06;;;;;;;42.78;40.58;;;;;;;;;;5076623;28;20036;-57
2022/04/13 13:11:37;;;;;;;45.10;42.80;;;;;;;;;;5077209;28;20052;-55
2022/04/13 13:14:11;;;;;;;40.67;38.58;;;;;;;;;;5078402;28;20186;-55
2022/04/13 13:16:42;;;;;;;43.40;41.13;;;;;;;;;;5077449;28;20055;-56
2022/04/13 13:19:13;;;;;;;36.72;34.83;;;;;;;;;;5078099;28;20376;-58
2022/04/13 13:22:07;;;;;;;42.10;39.88;;;;;;;;;;5074531;28;20104;-56
2022/04/13 13:24:32;;;;;;;46.60;44.13;;;;;;;;;;5076210;28;20529;-56
2022/04/13 13:27:03;;;;;;;43.10;40.90;;;;;;;;;;5075366;28;20111;-56
2022/04/13 13:29:28;;;;;;;42.83;40.45;;;;;;;;;;5074709;28;20059;-57
2022/04/13 13:31:54;;;;;;;37.88;35.88;;;;;;;;;;5071208;28;20068;-56
2022/04/13 13:34:22;;;;;;;39.60;37.53;;;;;;;;;;5082181;28;20050;-56
2022/04/13 13:37:00;;;;;;;51.20;48.53;;;;;;;;;;5077829;28;20045;-56
2022/04/13 13:39:25;;;;;;;35.75;33.90;;;;;;;;;;5074280;28;20103;-56
2022/04/13 13:42:10;;;;;;;46.47;42.90;;;;;;;;;;5074603;28;20119;-58
2022/04/13 13:44:36;;;;;;;56.67;53.83;;;;;;;;;;5074639;28;20024;-58
2022/04/13 13:47:03;;;;;;;61.00;57.83;;;;;;;;;;5076684;28;20043;-57
2022/04/13 13:49:29;;;;;;;110.25;104.78;;;;;;;;;;5075080;28;20039;-56
2022/04/13 13:51:54;;;;;;;63.80;60.60;;;;;;;;;;5073548;28;20093;-57
2022/04/13 13:54:21;;;;;;;132.10;125.63;;;;;;;;;;5074765;28;20581;-56
2022/04/13 13:56:47;;;;;;;144.70;137.55;;;;;;;;;;5072534;28;20042;-58
2022/04/13 13:59:13;;;;;;;96.40;91.60;;;;;;;;;;5075540;28;20362;-57
2022/04/13 14:01:39;;;;;;;149.23;141.77;;;;;;;;;;5077166;28;20040;-57
2022/04/13 14:04:04;;;;;;;165.50;157.40;;;;;;;;;;5075720;28;20047;-56
2022/04/13 14:06:30;;;;;;;147.65;140.38;;;;;;;;;;5077483;28;20047;-56
2022/04/13 14:08:55;;;;;;;151.75;144.27;;;;;;;;;;5077564;28;20028;-56
2022/04/13 14:11:22;;;;;;;124.85;118.65;;;;;;;;;;5076515;28;20077;-58
2022/04/13 14:13:48;;;;;;;53.38;50.58;;;;;;;;;;5078086;28;20097;-56
2022/04/13 14:16:14;;;;;;;40.25;38.15;;;;;;;;;;5074939;28;20450;-57
2022/04/13 14:18:39;;;;;;;161.95;153.95;;;;;;;;;;5071777;28;20032;-57
2022/04/13 14:21:05;;;;;;;131.82;125.25;;;;;;;;;;5073028;28;22720;-56
2022/04/13 14:23:31;;;;;;;108.18;102.78;;;;;;;;;;5071349;28;20041;-57